createdAt,value
2022-09-15T00:01:32.874Z,100.00
2022-09-15T00:03:59.438Z,100.00
2022-09-15T00:06:25.951Z,100.00
2022-09-15T00:08:52.476Z,100.00
2022-09-15T00:11:22.115Z,100.00
2022-09-15T00:13:49.435Z,100.00
2022-09-15T00:16:17.763Z,100.00
2022-09-15T00:18:46.212Z,100.00
2022-09-15T00:21:16.907Z,100.00
2022-09-15T00:23:43.956Z,100.00
2022-09-15T00:26:12.635Z,100.00
2022-09-15T00:28:40.116Z,100.00
2022-09-15T00:31:08.660Z,100.00
2022-09-15T00:33:35.755Z,100.00
2022-09-15T00:36:05.797Z,100.00
2022-09-15T00:38:33.751Z,100.00
2022-09-15T00:41:01.328Z,100.00
2022-09-15T00:43:44.252Z,100.00
2022-09-15T00:46:11.869Z,100.00
2022-09-15T00:48:44.135Z,100.00
2022-09-15T00:51:16.614Z,100.00
2022-09-15T00:53:46.500Z,100.00
2022-09-15T00:56:15.887Z,100.00
2022-09-15T00:58:46.265Z,100.00
2022-09-15T01:01:14.294Z,100.00
2022-09-15T01:03:40.951Z,100.00
2022-09-15T01:06:12.056Z,100.00
2022-09-15T01:08:46.008Z,100.00
2022-09-15T01:11:12.573Z,100.00
2022-09-15T01:13:39.186Z,100.00
2022-09-15T01:16:15.283Z,100.00
2022-09-15T01:18:57.694Z,100.00
2022-09-15T01:21:34.254Z,100.00
2022-09-15T01:24:40.440Z,100.00
2022-09-15T01:27:40.896Z,100.00
2022-09-15T01:30:15.191Z,100.00
2022-09-15T01:32:54.044Z,100.00
2022-09-15T01:35:29.079Z,100.00
2022-09-15T01:38:09.058Z,100.00
2022-09-15T01:40:40.691Z,100.00
2022-09-15T01:43:10.240Z,100.00
2022-09-15T01:45:41.853Z,100.00
2022-09-15T01:48:09.360Z,100.00
2022-09-15T01:50:44.240Z,100.00
2022-09-15T01:53:15.487Z,100.00
2022-09-15T01:55:46.605Z,100.00
2022-09-15T01:58:13.144Z,100.00
2022-09-15T02:00:44.837Z,100.00
2022-09-15T02:03:16.352Z,100.00
2022-09-15T02:05:49.023Z,100.00
2022-09-15T02:08:23.122Z,100.00
2022-09-15T02:10:56.289Z,100.00
2022-09-15T02:13:30.179Z,100.00
2022-09-15T02:16:00.396Z,100.00
2022-09-15T02:18:37.160Z,100.00
2022-09-15T02:21:09.264Z,100.00
2022-09-15T02:23:39.258Z,100.00
2022-09-15T02:26:10.822Z,100.00
2022-09-15T02:28:39.332Z,100.00
2022-09-15T02:31:11.267Z,100.00
2022-09-15T02:33:44.540Z,100.00
2022-09-15T02:36:13.468Z,100.00
2022-09-15T02:38:46.949Z,100.00
2022-09-15T02:41:13.540Z,100.00
2022-09-15T02:43:44.992Z,100.00
2022-09-15T02:46:13.066Z,100.00
2022-09-15T02:48:39.575Z,100.00
2022-09-15T02:51:06.522Z,100.00
2022-09-15T02:53:33.020Z,100.00
2022-09-15T02:55:59.914Z,100.00
2022-09-15T02:58:26.407Z,100.00
2022-09-15T03:00:53.064Z,100.00
2022-09-15T03:03:21.185Z,100.00
2022-09-15T03:05:47.982Z,100.00
2022-09-15T03:08:14.599Z,100.00
2022-09-15T03:10:41.132Z,100.00
2022-09-15T03:13:07.646Z,100.00
2022-09-15T03:15:34.169Z,100.00
2022-09-15T03:18:02.062Z,100.00
2022-09-15T03:20:29.935Z,100.00
2022-09-15T03:22:56.510Z,100.00
2022-09-15T03:25:23.030Z,100.00
2022-09-15T03:27:49.635Z,100.00
2022-09-15T03:30:16.149Z,100.00
2022-09-15T03:32:42.774Z,100.00
2022-09-15T03:35:10.040Z,100.00
2022-09-15T03:37:37.882Z,100.00
2022-09-15T03:40:05.483Z,100.00
2022-09-15T03:42:32.095Z,100.00
2022-09-15T03:44:58.635Z,100.00
2022-09-15T03:47:25.243Z,100.00
2022-09-15T03:49:51.732Z,100.00
2022-09-15T03:52:18.324Z,100.00
2022-09-15T03:54:48.152Z,100.00
2022-09-15T03:57:14.652Z,100.00
2022-09-15T03:59:41.178Z,100.00
2022-09-15T04:02:08.053Z,100.00
2022-09-15T04:04:34.691Z,100.00
2022-09-15T04:07:01.197Z,100.00
2022-09-15T04:09:28.019Z,100.00
2022-09-15T04:11:56.066Z,100.00
2022-09-15T04:14:22.712Z,100.00
2022-09-15T04:16:49.203Z,100.00
2022-09-15T04:19:15.794Z,100.00
2022-09-15T04:21:42.332Z,100.00
2022-09-15T04:24:08.918Z,100.00
2022-09-15T04:26:36.768Z,100.00
2022-09-15T04:29:05.925Z,100.00
2022-09-15T04:31:33.501Z,100.00
2022-09-15T04:34:00.516Z,100.00
2022-09-15T04:36:28.686Z,100.00
2022-09-15T04:38:55.702Z,100.00
2022-09-15T04:41:23.072Z,100.00
2022-09-15T04:43:50.199Z,100.00
2022-09-15T04:46:18.387Z,100.00
2022-09-15T04:48:45.784Z,100.00
2022-09-15T04:51:15.223Z,100.00
2022-09-15T04:53:42.208Z,100.00
2022-09-15T04:56:10.861Z,100.00
2022-09-15T04:58:38.710Z,100.00
2022-09-15T05:01:10.087Z,100.00
2022-09-15T05:03:38.266Z,100.00
2022-09-15T05:06:05.961Z,100.00
2022-09-15T05:08:32.618Z,100.00
2022-09-15T05:11:00.302Z,100.00
2022-09-15T05:13:27.130Z,100.00
2022-09-15T05:15:53.827Z,100.00
2022-09-15T05:18:20.467Z,100.00
2022-09-15T05:20:48.349Z,100.00
2022-09-15T05:23:14.937Z,100.00
2022-09-15T05:25:41.422Z,100.00
2022-09-15T05:28:08.028Z,100.00
2022-09-15T05:30:39.551Z,100.00
2022-09-15T05:33:06.237Z,100.00
2022-09-15T05:35:32.765Z,100.00
2022-09-15T05:38:00.700Z,100.00
2022-09-15T05:40:27.428Z,100.00
2022-09-15T05:42:53.950Z,100.00
2022-09-15T05:45:20.446Z,100.00
2022-09-15T05:47:46.957Z,100.00
2022-09-15T05:50:13.722Z,100.00
2022-09-15T05:52:40.231Z,100.00
2022-09-15T05:55:08.768Z,100.00
2022-09-15T05:57:35.256Z,100.00
2022-09-15T06:00:02.452Z,100.00
2022-09-15T06:02:29.030Z,100.00
2022-09-15T06:04:55.589Z,100.00
2022-09-15T06:07:22.192Z,100.00
2022-09-15T06:09:48.716Z,100.00
2022-09-15T06:12:16.700Z,100.00
2022-09-15T06:14:43.272Z,100.00
2022-09-15T06:17:09.757Z,100.00
2022-09-15T06:19:36.252Z,100.00
2022-09-15T06:22:02.905Z,100.00
2022-09-15T06:24:29.415Z,100.00
2022-09-15T06:26:55.936Z,100.00
2022-09-15T06:29:23.795Z,100.00
2022-09-15T06:31:50.354Z,100.00
2022-09-15T06:34:16.931Z,100.00
2022-09-15T06:36:43.467Z,100.00
2022-09-15T06:39:10.200Z,99.57
2022-09-15T06:42:00.691Z,100.00
2022-09-15T06:44:24.635Z,99.55
2022-09-15T06:46:51.110Z,100.00
2022-09-15T06:49:17.726Z,100.00
2022-09-15T06:51:44.598Z,100.00
2022-09-15T06:54:11.095Z,99.34
2022-09-15T06:56:39.330Z,97.32
2022-09-15T06:59:06.042Z,96.54
2022-09-15T07:01:34.190Z,98.40
2022-09-15T07:04:01.745Z,100.00
2022-09-15T07:06:29.101Z,99.42
2022-09-15T07:08:55.654Z,98.80
2022-09-15T07:11:22.150Z,99.22
2022-09-15T07:13:48.793Z,99.62
2022-09-15T07:16:16.021Z,97.98
2022-09-15T07:18:44.089Z,98.03
2022-09-15T07:21:13.458Z,97.31
2022-09-15T07:23:40.135Z,97.26
2022-09-15T07:26:08.907Z,97.07
2022-09-15T07:28:35.972Z,96.31
2022-09-15T07:31:03.629Z,94.46
2022-09-15T07:33:30.177Z,94.99
2022-09-15T07:35:58.166Z,94.38
2022-09-15T07:38:24.817Z,94.47
2022-09-15T07:40:51.325Z,94.22
2022-09-15T07:43:17.940Z,92.21
2022-09-15T07:45:44.520Z,91.52
2022-09-15T07:48:11.065Z,91.20
2022-09-15T07:50:37.822Z,91.00
2022-09-15T07:53:05.682Z,92.60
2022-09-15T07:55:32.659Z,92.01
2022-09-15T07:57:59.720Z,90.33
2022-09-15T08:00:26.917Z,87.33
2022-09-15T08:02:53.575Z,87.61
2022-09-15T08:05:20.225Z,88.18
2022-09-15T08:07:46.946Z,88.45
2022-09-15T08:10:14.949Z,87.33
2022-09-15T08:12:41.485Z,88.01
2022-09-15T08:15:08.388Z,84.05
2022-09-15T08:17:35.017Z,84.58
2022-09-15T08:20:01.957Z,85.22
2022-09-15T08:22:28.676Z,83.90
2022-09-15T08:24:55.269Z,83.09
2022-09-15T08:27:23.118Z,82.45
2022-09-15T08:29:49.640Z,80.79
2022-09-15T08:32:16.217Z,82.00
2022-09-15T08:34:42.765Z,82.85
2022-09-15T08:37:09.288Z,82.01
2022-09-15T08:39:35.780Z,80.68
2022-09-15T08:42:03.001Z,80.68
2022-09-15T08:44:40.611Z,82.27
2022-09-15T08:47:13.608Z,81.30
2022-09-15T08:49:52.102Z,81.33
2022-09-15T08:52:23.051Z,79.93
2022-09-15T08:54:52.987Z,80.58
2022-09-15T08:57:23.666Z,81.02
2022-09-15T08:59:52.497Z,78.57
2022-09-15T09:02:57.530Z,77.67
2022-09-15T09:05:49.593Z,77.18
2022-09-15T09:08:35.269Z,78.26
2022-09-15T09:11:12.141Z,75.30
2022-09-15T09:13:47.681Z,77.39
2022-09-15T09:16:32.780Z,77.10
2022-09-15T09:19:11.161Z,79.12
2022-09-15T09:21:41.374Z,79.56
2022-09-15T09:24:15.322Z,79.72
2022-09-15T09:26:41.894Z,76.61
2022-09-15T09:29:16.240Z,79.56
2022-09-15T09:31:47.574Z,78.91
2022-09-15T09:34:22.716Z,79.89
2022-09-15T09:36:53.089Z,79.44
2022-09-15T09:39:19.634Z,81.00
2022-09-15T09:41:46.196Z,82.58
2022-09-15T09:44:14.720Z,82.12
2022-09-15T09:46:41.551Z,82.76
2022-09-15T09:49:17.249Z,83.68
2022-09-15T09:51:53.981Z,82.46
2022-09-15T09:54:22.278Z,83.65
2022-09-15T09:56:49.910Z,84.41
2022-09-15T09:59:40.346Z,82.25
2022-09-15T10:02:18.659Z,82.60
2022-09-15T10:04:48.213Z,82.38
2022-09-15T10:07:16.928Z,82.67
2022-09-15T10:09:53.348Z,81.15
2022-09-15T10:12:23.679Z,81.30
2022-09-15T10:14:52.993Z,81.68
2022-09-15T10:17:22.138Z,79.53
2022-09-15T10:19:52.620Z,78.12
2022-09-15T10:22:25.634Z,77.82
2022-09-15T10:24:52.352Z,77.55
2022-09-15T10:27:25.882Z,77.40
2022-09-15T10:29:52.431Z,74.63
2022-09-15T10:32:25.690Z,73.96
2022-09-15T10:35:06.377Z,75.93
2022-09-15T10:37:37.570Z,77.09
2022-09-15T10:40:20.774Z,77.38
2022-09-15T10:42:51.461Z,73.25
2022-09-15T10:45:25.604Z,73.38
2022-09-15T10:48:31.196Z,71.30
2022-09-15T10:51:09.673Z,70.92
2022-09-15T10:53:53.570Z,70.54
2022-09-15T10:56:28.270Z,69.76
2022-09-15T10:59:02.667Z,72.60
2022-09-15T11:01:46.113Z,67.99
2022-09-15T11:04:38.473Z,70.27
2022-09-15T11:07:15.349Z,68.44
2022-09-15T11:09:44.407Z,69.18
2022-09-15T11:12:30.390Z,69.38
2022-09-15T11:15:19.402Z,69.56
2022-09-15T11:17:59.892Z,68.37
2022-09-15T11:20:41.042Z,68.63
2022-09-15T11:23:16.875Z,64.87
2022-09-15T11:25:46.544Z,64.43
2022-09-15T11:28:19.887Z,63.36
2022-09-15T11:30:55.726Z,65.38
2022-09-15T11:33:28.960Z,61.63
2022-09-15T11:36:01.146Z,60.29
2022-09-15T11:38:38.117Z,58.55
2022-09-15T11:41:17.722Z,58.70
2022-09-15T11:43:53.633Z,61.35
2022-09-15T11:46:26.122Z,57.06
2022-09-15T11:48:59.908Z,56.67
2022-09-15T11:51:29.300Z,54.90
2022-09-15T11:54:05.017Z,52.36
2022-09-15T11:56:36.515Z,50.68
2022-09-15T11:59:14.558Z,50.88
2022-09-15T12:01:48.778Z,47.76
2022-09-15T12:04:19.994Z,47.15
2022-09-15T12:06:51.561Z,45.71
2022-09-15T12:09:20.952Z,49.00
2022-09-15T12:11:49.653Z,50.82
2022-09-15T12:14:22.545Z,48.72
2022-09-15T12:16:49.833Z,51.60
2022-09-15T12:19:25.818Z,53.14
2022-09-15T12:22:00.089Z,55.21
2022-09-15T12:24:38.405Z,55.20
2022-09-15T12:27:05.018Z,54.06
2022-09-15T12:29:41.186Z,53.54
2022-09-15T12:32:21.286Z,55.29
2022-09-15T12:35:02.711Z,55.17
2022-09-15T12:37:40.070Z,55.46
2022-09-15T12:40:26.044Z,55.34
2022-09-15T12:42:53.049Z,57.05
2022-09-15T12:45:23.092Z,57.32
2022-09-15T12:47:53.210Z,54.63
2022-09-15T12:50:27.306Z,52.68
2022-09-15T12:52:58.127Z,54.74
2022-09-15T12:55:28.626Z,54.61
2022-09-15T12:57:57.826Z,54.13
2022-09-15T13:00:38.015Z,54.71
2022-09-15T13:03:26.868Z,55.81
2022-09-15T13:06:14.580Z,55.92
2022-09-15T13:08:52.458Z,55.63
2022-09-15T13:11:31.301Z,57.53
2022-09-15T13:14:10.321Z,55.19
2022-09-15T13:16:45.750Z,57.01
2022-09-15T13:19:19.289Z,57.60
2022-09-15T13:21:52.152Z,56.57
2022-09-15T13:24:24.231Z,57.33
2022-09-15T13:26:54.832Z,58.33
2022-09-15T13:29:22.727Z,57.71
2022-09-15T13:31:54.929Z,59.90
2022-09-15T13:35:08.027Z,59.78
2022-09-15T13:38:13.954Z,61.48
2022-09-15T13:41:15.441Z,62.02
2022-09-15T13:44:12.000Z,62.92
2022-09-15T13:46:53.495Z,62.58
2022-09-15T13:49:35.189Z,62.09
2022-09-15T13:52:12.468Z,62.83
2022-09-15T13:55:08.180Z,62.61
2022-09-15T14:00:29.639Z,61.21
2022-09-15T14:02:59.917Z,61.55
2022-09-15T14:05:29.739Z,61.70
2022-09-15T14:08:01.279Z,61.81
2022-09-15T14:10:31.957Z,62.03
2022-09-15T14:13:00.516Z,61.46
2022-09-15T14:15:29.719Z,61.55
2022-09-15T14:17:56.459Z,61.61
2022-09-15T14:20:27.015Z,60.43
2022-09-15T14:22:53.797Z,59.79
2022-09-15T14:25:21.650Z,60.40
2022-09-15T14:27:50.486Z,59.59
2022-09-15T14:30:21.045Z,59.67
2022-09-15T14:32:53.587Z,59.28
2022-09-15T14:35:24.147Z,59.18
2022-09-15T14:37:55.796Z,58.94
2022-09-15T14:40:29.218Z,58.93
2022-09-15T14:42:56.582Z,59.24
2022-09-15T14:45:57.853Z,59.47
2022-09-15T14:48:24.271Z,57.53
2022-09-15T14:51:00.401Z,57.04
2022-09-15T14:53:30.236Z,58.61
2022-09-15T14:56:07.088Z,57.59
2022-09-15T14:58:37.048Z,58.47
2022-09-15T15:01:09.163Z,58.55
2022-09-15T15:03:43.583Z,59.35
2022-09-15T15:06:30.510Z,58.27
2022-09-15T15:09:01.112Z,58.84
2022-09-15T15:11:28.992Z,59.09
2022-09-15T15:13:56.176Z,56.92
2022-09-15T15:16:26.369Z,55.53
2022-09-15T15:18:54.623Z,54.80
2022-09-15T15:21:34.796Z,54.92
2022-09-15T15:24:08.551Z,56.80
2022-09-15T15:26:36.849Z,57.32
2022-09-15T15:29:07.568Z,58.52
2022-09-15T15:31:39.078Z,59.06
2022-09-15T15:34:22.936Z,60.00
2022-09-15T15:36:49.485Z,59.94
2022-09-15T15:39:23.964Z,61.61
2022-09-15T15:42:00.635Z,61.59
2022-09-15T15:44:28.298Z,62.32
2022-09-15T15:46:57.260Z,62.61
2022-09-15T15:49:27.082Z,62.93
2022-09-15T15:51:54.184Z,63.46
2022-09-15T15:54:21.096Z,63.61
2022-09-15T15:56:47.605Z,64.36
2022-09-15T15:59:15.062Z,64.06
2022-09-15T16:01:42.256Z,64.77
2022-09-15T16:04:08.923Z,64.87
2022-09-15T16:06:36.836Z,64.39
2022-09-15T16:09:04.733Z,64.17
2022-09-15T16:11:31.531Z,64.71
2022-09-15T16:13:58.281Z,64.74
2022-09-15T16:16:26.445Z,65.04
2022-09-15T16:18:53.541Z,66.49
2022-09-15T16:21:31.698Z,66.17
2022-09-15T16:23:59.543Z,66.89
2022-09-15T16:26:26.077Z,66.20
2022-09-15T16:28:52.799Z,66.49
2022-09-15T16:31:19.468Z,66.86
2022-09-15T16:33:46.146Z,67.42
2022-09-15T16:36:14.203Z,68.02
2022-09-15T16:38:42.662Z,69.91
2022-09-15T16:41:15.169Z,70.30
2022-09-15T16:43:42.104Z,70.93
2022-09-15T16:46:09.730Z,71.11
2022-09-15T16:48:36.531Z,71.84
2022-09-15T16:51:27.077Z,71.58
2022-09-15T16:53:50.413Z,72.09
2022-09-15T16:56:18.455Z,72.07
2022-09-15T16:58:45.024Z,71.55
2022-09-15T17:01:16.485Z,72.34
2022-09-15T17:03:43.024Z,71.79
2022-09-15T17:06:12.752Z,72.42
2022-09-15T17:08:39.307Z,72.62
2022-09-15T17:11:06.487Z,72.84
2022-09-15T17:13:34.482Z,72.61
2022-09-15T17:16:01.736Z,73.32
2022-09-15T17:18:29.212Z,73.53
2022-09-15T17:20:56.008Z,74.21
2022-09-15T17:23:24.905Z,74.46
2022-09-15T17:25:53.077Z,74.59
2022-09-15T17:28:21.882Z,74.59
2022-09-15T17:30:51.923Z,74.51
2022-09-15T17:33:19.875Z,75.20
2022-09-15T17:35:47.275Z,75.27
2022-09-15T17:38:14.689Z,75.84
2022-09-15T17:40:41.500Z,76.22
2022-09-15T17:43:13.907Z,76.39
2022-09-15T17:45:40.675Z,76.30
2022-09-15T17:48:08.897Z,76.74
2022-09-15T17:50:36.371Z,77.05
2022-09-15T17:53:02.983Z,77.36
2022-09-15T17:55:31.825Z,77.51
2022-09-15T17:58:00.229Z,77.89
2022-09-15T18:00:29.693Z,77.63
2022-09-15T18:02:58.582Z,77.81
2022-09-15T18:05:29.022Z,78.28
2022-09-15T18:07:57.312Z,78.30
2022-09-15T18:10:25.165Z,78.82
2022-09-15T18:12:55.081Z,79.08
2022-09-15T18:15:24.579Z,79.24
2022-09-15T18:17:52.533Z,79.37
2022-09-15T18:20:23.332Z,79.81
2022-09-15T18:22:51.449Z,79.87
2022-09-15T18:25:20.400Z,80.33
2022-09-15T18:27:46.955Z,80.99
2022-09-15T18:30:13.605Z,81.02
2022-09-15T18:32:40.288Z,81.65
2022-09-15T18:35:08.330Z,82.28
2022-09-15T18:37:35.388Z,82.50
2022-09-15T18:40:04.284Z,82.33
2022-09-15T18:42:31.942Z,82.91
2022-09-15T18:44:58.856Z,82.98
2022-09-15T18:47:25.664Z,82.70
2022-09-15T18:49:52.205Z,82.90
2022-09-15T18:52:18.723Z,83.22
2022-09-15T18:54:45.257Z,83.99
2022-09-15T18:57:13.326Z,83.68
2022-09-15T18:59:39.866Z,84.35
2022-09-15T19:02:06.550Z,84.20
2022-09-15T19:04:37.250Z,84.66
2022-09-15T19:07:06.450Z,84.38
2022-09-15T19:09:33.068Z,84.62
2022-09-15T19:11:59.964Z,84.88
2022-09-15T19:14:29.023Z,84.92
2022-09-15T19:16:57.885Z,85.04
2022-09-15T19:19:25.011Z,85.02
2022-09-15T19:21:51.656Z,84.76
2022-09-15T19:24:18.233Z,84.92
2022-09-15T19:26:45.656Z,85.42
2022-09-15T19:29:12.848Z,85.81
2022-09-15T19:31:42.131Z,85.97
2022-09-15T19:34:08.904Z,85.13
2022-09-15T19:36:35.624Z,85.60
2022-09-15T19:39:02.373Z,85.12
2022-09-15T19:41:29.012Z,85.67
2022-09-15T19:43:55.523Z,85.90
2022-09-15T19:46:25.099Z,86.42
2022-09-15T19:48:53.795Z,86.91
2022-09-15T19:51:20.878Z,86.94
2022-09-15T19:53:47.660Z,87.54
2022-09-15T19:56:16.159Z,87.48
2022-09-15T19:58:42.915Z,87.37
2022-09-15T20:01:10.291Z,87.31
2022-09-15T20:03:37.104Z,87.76
2022-09-15T20:06:07.735Z,87.93
2022-09-15T20:08:35.183Z,88.24
2022-09-15T20:11:04.654Z,88.40
2022-09-15T20:13:31.545Z,88.86
2022-09-15T20:16:00.508Z,89.25
2022-09-15T20:18:27.505Z,89.94
2022-09-15T20:20:54.716Z,89.67
2022-09-15T20:23:23.152Z,89.69
2022-09-15T20:25:56.763Z,90.30
2022-09-15T20:28:23.667Z,90.30
2022-09-15T20:31:02.393Z,90.18
2022-09-15T20:33:29.476Z,90.21
2022-09-15T20:36:00.448Z,90.20
2022-09-15T20:38:28.529Z,89.77
2022-09-15T20:40:55.244Z,90.13
2022-09-15T20:43:21.889Z,90.07
2022-09-15T20:45:59.895Z,89.84
2022-09-15T20:48:27.236Z,89.55
2022-09-15T20:51:00.316Z,89.57
2022-09-15T20:53:28.346Z,89.73
2022-09-15T20:55:55.257Z,89.66
2022-09-15T20:58:21.853Z,89.47
2022-09-15T21:00:48.510Z,89.23
2022-09-15T21:03:15.744Z,88.83
2022-09-15T21:05:42.909Z,89.48
2022-09-15T21:08:09.669Z,89.68
2022-09-15T21:10:38.024Z,89.49
2022-09-15T21:13:05.275Z,89.12
2022-09-15T21:15:32.108Z,89.31
2022-09-15T21:17:58.831Z,89.19
2022-09-15T21:20:25.340Z,89.20
2022-09-15T21:22:54.057Z,89.45
2022-09-15T21:25:30.236Z,89.63
2022-09-15T21:27:58.229Z,89.38
2022-09-15T21:30:24.734Z,89.65
2022-09-15T21:32:51.280Z,89.83
2022-09-15T21:35:17.766Z,89.96
2022-09-15T21:37:44.308Z,89.71
2022-09-15T21:40:11.024Z,89.73
2022-09-15T21:42:37.540Z,90.16
2022-09-15T21:45:06.711Z,89.27
2022-09-15T21:47:33.261Z,89.45
2022-09-15T21:49:59.940Z,89.17
2022-09-15T21:52:26.545Z,89.48
2022-09-15T21:54:53.072Z,89.34
2022-09-15T21:57:19.710Z,89.97
2022-09-15T21:59:46.225Z,89.77
2022-09-15T22:02:14.230Z,90.70
2022-09-15T22:04:40.763Z,91.67
2022-09-15T22:07:07.300Z,91.66
2022-09-15T22:09:33.849Z,91.84
2022-09-15T22:12:00.663Z,91.64
2022-09-15T22:14:27.217Z,91.10
2022-09-15T22:16:53.822Z,92.12
2022-09-15T22:19:21.943Z,91.59
2022-09-15T22:21:48.518Z,91.30
2022-09-15T22:24:15.010Z,90.56
2022-09-15T22:26:42.624Z,90.52
2022-09-15T22:29:09.454Z,90.88
2022-09-15T22:31:36.328Z,91.35
2022-09-15T22:34:03.419Z,90.81
2022-09-15T22:36:31.932Z,91.21
2022-09-15T22:38:59.850Z,90.79
2022-09-15T22:41:26.345Z,90.56
2022-09-15T22:43:52.981Z,91.03
2022-09-15T22:46:19.838Z,90.59
2022-09-15T22:48:46.638Z,90.80
2022-09-15T22:51:14.501Z,90.50
2022-09-15T22:53:42.497Z,90.67
2022-09-15T22:56:11.591Z,90.64
2022-09-15T22:58:41.846Z,90.43
2022-09-15T23:01:10.818Z,90.17
2022-09-15T23:03:38.216Z,90.25
2022-09-15T23:06:05.829Z,90.08
2022-09-15T23:08:33.015Z,90.15
2022-09-15T23:11:05.895Z,89.76
2022-09-15T23:13:32.654Z,89.72
2022-09-15T23:15:59.375Z,89.88
2022-09-15T23:18:27.990Z,90.12
2022-09-15T23:20:59.147Z,89.91
2022-09-15T23:23:26.629Z,89.60
2022-09-15T23:25:53.273Z,89.46
2022-09-15T23:28:21.629Z,90.13
2022-09-15T23:30:51.829Z,89.72
2022-09-15T23:33:18.817Z,89.87
2022-09-15T23:35:45.536Z,89.77
2022-09-15T23:38:12.607Z,89.66
2022-09-15T23:40:40.768Z,89.87
2022-09-15T23:43:07.409Z,89.95
2022-09-15T23:45:35.422Z,90.58
2022-09-15T23:48:02.585Z,90.53
2022-09-15T23:50:29.137Z,90.36
2022-09-15T23:52:55.657Z,91.03
2022-09-15T23:55:22.454Z,91.26
2022-09-15T23:57:49.338Z,91.53
